sensor_id;sensor_type;location;lat;lon;timestamp;P1;durP1;ratioP1;P2;durP2;ratioP2
18090;SDS011;9172;49.948;9.208;2022-08-05T00:02:10;4.83;;;1.62;;
18090;SDS011;9172;49.948;9.208;2022-08-05T00:04:40;3.37;;;1.75;;
18090;SDS011;9172;49.948;9.208;2022-08-05T00:07:12;4.47;;;2.60;;
18090;SDS011;9172;49.948;9.208;2022-08-05T00:09:40;2.80;;;1.80;;
18090;SDS011;9172;49.948;9.208;2022-08-05T00:12:10;10.70;;;1.80;;
18090;SDS011;9172;49.948;9.208;2022-08-05T00:14:39;2.75;;;2.10;;
18090;SDS011;9172;49.948;9.208;2022-08-05T00:17:09;2.75;;;1.90;;
18090;SDS011;9172;49.948;9.208;2022-08-05T00:19:38;2.40;;;1.50;;
18090;SDS011;9172;49.948;9.208;2022-08-05T00:22:06;2.72;;;1.65;;
18090;SDS011;9172;49.948;9.208;2022-08-05T00:24:35;2.20;;;1.67;;
18090;SDS011;9172;49.948;9.208;2022-08-05T00:27:05;2.98;;;1.87;;
18090;SDS011;9172;49.948;9.208;2022-08-05T00:29:35;3.62;;;1.75;;
18090;SDS011;9172;49.948;9.208;2022-08-05T00:32:04;3.40;;;1.92;;
18090;SDS011;9172;49.948;9.208;2022-08-05T00:34:36;4.33;;;1.70;;
18090;SDS011;9172;49.948;9.208;2022-08-05T00:37:04;4.53;;;2.30;;
18090;SDS011;9172;49.948;9.208;2022-08-05T00:39:33;4.28;;;2.20;;
18090;SDS011;9172;49.948;9.208;2022-08-05T00:42:03;3.50;;;2.10;;
18090;SDS011;9172;49.948;9.208;2022-08-05T00:44:33;3.60;;;2.15;;
18090;SDS011;9172;49.948;9.208;2022-08-05T00:47:02;7.58;;;2.08;;
18090;SDS011;9172;49.948;9.208;2022-08-05T00:49:31;9.93;;;2.20;;
18090;SDS011;9172;49.948;9.208;2022-08-05T00:52:00;7.58;;;2.12;;
18090;SDS011;9172;49.948;9.208;2022-08-05T00:54:28;6.72;;;1.87;;
18090;SDS011;9172;49.948;9.208;2022-08-05T00:56:57;4.78;;;1.87;;
18090;SDS011;9172;49.948;9.208;2022-08-05T00:59:25;3.72;;;1.80;;
18090;SDS011;9172;49.948;9.208;2022-08-05T01:01:55;3.65;;;1.80;;
18090;SDS011;9172;49.948;9.208;2022-08-05T01:04:23;7.37;;;2.40;;
18090;SDS011;9172;49.948;9.208;2022-08-05T01:06:53;8.05;;;2.05;;
18090;SDS011;9172;49.948;9.208;2022-08-05T01:09:22;3.72;;;2.02;;
18090;SDS011;9172;49.948;9.208;2022-08-05T01:11:51;5.78;;;2.05;;
18090;SDS011;9172;49.948;9.208;2022-08-05T01:14:23;8.60;;;1.60;;
18090;SDS011;9172;49.948;9.208;2022-08-05T01:16:58;3.77;;;1.90;;
18090;SDS011;9172;49.948;9.208;2022-08-05T01:19:30;4.95;;;1.87;;
18090;SDS011;9172;49.948;9.208;2022-08-05T01:22:16;5.87;;;1.75;;
18090;SDS011;9172;49.948;9.208;2022-08-05T01:24:50;5.20;;;2.20;;
18090;SDS011;9172;49.948;9.208;2022-08-05T01:30:11;3.08;;;1.85;;
18090;SDS011;9172;49.948;9.208;2022-08-05T01:32:41;11.97;;;2.25;;
18090;SDS011;9172;49.948;9.208;2022-08-05T01:35:13;7.22;;;2.35;;
18090;SDS011;9172;49.948;9.208;2022-08-05T01:37:44;6.35;;;2.33;;
18090;SDS011;9172;49.948;9.208;2022-08-05T01:40:15;9.28;;;2.52;;
18090;SDS011;9172;49.948;9.208;2022-08-05T01:42:46;5.97;;;2.20;;
18090;SDS011;9172;49.948;9.208;2022-08-05T01:45:17;6.55;;;2.15;;
18090;SDS011;9172;49.948;9.208;2022-08-05T01:47:48;3.42;;;1.95;;
18090;SDS011;9172;49.948;9.208;2022-08-05T01:50:22;6.67;;;2.52;;
18090;SDS011;9172;49.948;9.208;2022-08-05T01:52:53;9.00;;;2.15;;
18090;SDS011;9172;49.948;9.208;2022-08-05T01:55:24;11.80;;;2.05;;
18090;SDS011;9172;49.948;9.208;2022-08-05T01:57:56;5.72;;;2.10;;
18090;SDS011;9172;49.948;9.208;2022-08-05T02:00:25;6.62;;;2.12;;
18090;SDS011;9172;49.948;9.208;2022-08-05T02:02:56;9.23;;;2.00;;
18090;SDS011;9172;49.948;9.208;2022-08-05T02:05:28;5.92;;;2.20;;
18090;SDS011;9172;49.948;9.208;2022-08-05T02:07:58;5.62;;;2.37;;
18090;SDS011;9172;49.948;9.208;2022-08-05T02:10:30;4.50;;;2.27;;
18090;SDS011;9172;49.948;9.208;2022-08-05T02:13:02;13.60;;;2.22;;
18090;SDS011;9172;49.948;9.208;2022-08-05T02:15:34;12.98;;;2.50;;
18090;SDS011;9172;49.948;9.208;2022-08-05T02:18:06;7.90;;;2.10;;
18090;SDS011;9172;49.948;9.208;2022-08-05T02:20:39;7.47;;;2.52;;
18090;SDS011;9172;49.948;9.208;2022-08-05T02:23:18;13.55;;;2.92;;
18090;SDS011;9172;49.948;9.208;2022-08-05T02:25:50;8.65;;;2.08;;
18090;SDS011;9172;49.948;9.208;2022-08-05T02:28:21;8.08;;;2.17;;
18090;SDS011;9172;49.948;9.208;2022-08-05T02:30:52;5.12;;;2.58;;
18090;SDS011;9172;49.948;9.208;2022-08-05T02:33:23;8.28;;;1.80;;
18090;SDS011;9172;49.948;9.208;2022-08-05T02:35:53;4.45;;;1.95;;
18090;SDS011;9172;49.948;9.208;2022-08-05T02:38:25;5.40;;;2.30;;
18090;SDS011;9172;49.948;9.208;2022-08-05T02:40:55;9.88;;;2.50;;
18090;SDS011;9172;49.948;9.208;2022-08-05T02:43:26;7.70;;;1.92;;
18090;SDS011;9172;49.948;9.208;2022-08-05T02:45:58;4.17;;;2.20;;
18090;SDS011;9172;49.948;9.208;2022-08-05T02:48:28;3.62;;;1.77;;
18090;SDS011;9172;49.948;9.208;2022-08-05T02:50:58;3.15;;;1.70;;
18090;SDS011;9172;49.948;9.208;2022-08-05T02:53:28;9.00;;;2.10;;
18090;SDS011;9172;49.948;9.208;2022-08-05T02:55:58;6.15;;;2.15;;
18090;SDS011;9172;49.948;9.208;2022-08-05T02:58:28;4.08;;;1.80;;
18090;SDS011;9172;49.948;9.208;2022-08-05T03:00:59;5.50;;;2.20;;
18090;SDS011;9172;49.948;9.208;2022-08-05T03:03:28;4.08;;;2.02;;
18090;SDS011;9172;49.948;9.208;2022-08-05T03:06:01;4.87;;;1.82;;
18090;SDS011;9172;49.948;9.208;2022-08-05T03:08:30;5.60;;;1.90;;
18090;SDS011;9172;49.948;9.208;2022-08-05T03:11:00;3.17;;;1.80;;
18090;SDS011;9172;49.948;9.208;2022-08-05T03:13:28;5.03;;;1.85;;
18090;SDS011;9172;49.948;9.208;2022-08-05T03:15:58;7.22;;;1.82;;
18090;SDS011;9172;49.948;9.208;2022-08-05T03:18:26;5.95;;;1.90;;
18090;SDS011;9172;49.948;9.208;2022-08-05T03:20:55;4.92;;;1.80;;
18090;SDS011;9172;49.948;9.208;2022-08-05T03:23:23;11.63;;;2.37;;
18090;SDS011;9172;49.948;9.208;2022-08-05T03:25:54;5.37;;;2.17;;
18090;SDS011;9172;49.948;9.208;2022-08-05T03:28:23;7.35;;;1.80;;
18090;SDS011;9172;49.948;9.208;2022-08-05T03:30:53;5.42;;;2.50;;
18090;SDS011;9172;49.948;9.208;2022-08-05T03:33:25;8.30;;;1.65;;
18090;SDS011;9172;49.948;9.208;2022-08-05T03:35:54;4.37;;;1.90;;
18090;SDS011;9172;49.948;9.208;2022-08-05T03:38:25;6.00;;;2.10;;
18090;SDS011;9172;49.948;9.208;2022-08-05T03:40:53;5.35;;;2.00;;
18090;SDS011;9172;49.948;9.208;2022-08-05T03:43:23;5.08;;;1.95;;
18090;SDS011;9172;49.948;9.208;2022-08-05T03:45:53;5.80;;;2.02;;
18090;SDS011;9172;49.948;9.208;2022-08-05T03:48:23;5.17;;;1.90;;
18090;SDS011;9172;49.948;9.208;2022-08-05T03:50:53;4.80;;;2.27;;
18090;SDS011;9172;49.948;9.208;2022-08-05T03:53:26;8.90;;;2.02;;
18090;SDS011;9172;49.948;9.208;2022-08-05T03:55:59;5.95;;;2.30;;
18090;SDS011;9172;49.948;9.208;2022-08-05T03:58:31;5.70;;;2.25;;
18090;SDS011;9172;49.948;9.208;2022-08-05T04:01:03;4.00;;;2.05;;
18090;SDS011;9172;49.948;9.208;2022-08-05T04:03:34;3.80;;;2.25;;
18090;SDS011;9172;49.948;9.208;2022-08-05T04:06:06;11.57;;;2.30;;
18090;SDS011;9172;49.948;9.208;2022-08-05T04:08:36;12.25;;;2.70;;
18090;SDS011;9172;49.948;9.208;2022-08-05T04:11:06;6.65;;;2.20;;
18090;SDS011;9172;49.948;9.208;2022-08-05T04:13:35;6.03;;;2.42;;
18090;SDS011;9172;49.948;9.208;2022-08-05T04:16:06;7.30;;;2.40;;
18090;SDS011;9172;49.948;9.208;2022-08-05T04:18:36;5.42;;;2.60;;
18090;SDS011;9172;49.948;9.208;2022-08-05T04:21:05;11.60;;;3.83;;
18090;SDS011;9172;49.948;9.208;2022-08-05T04:23:34;5.65;;;2.70;;
18090;SDS011;9172;49.948;9.208;2022-08-05T04:26:04;5.58;;;2.30;;
18090;SDS011;9172;49.948;9.208;2022-08-05T04:28:33;5.17;;;2.02;;
18090;SDS011;9172;49.948;9.208;2022-08-05T04:31:01;7.67;;;2.08;;
18090;SDS011;9172;49.948;9.208;2022-08-05T04:33:31;10.65;;;2.10;;
18090;SDS011;9172;49.948;9.208;2022-08-05T04:36:01;6.05;;;2.15;;
18090;SDS011;9172;49.948;9.208;2022-08-05T04:38:30;5.20;;;2.70;;
18090;SDS011;9172;49.948;9.208;2022-08-05T04:41:01;3.40;;;2.20;;
18090;SDS011;9172;49.948;9.208;2022-08-05T04:43:31;3.87;;;2.00;;
18090;SDS011;9172;49.948;9.208;2022-08-05T04:45:59;3.45;;;2.00;;
18090;SDS011;9172;49.948;9.208;2022-08-05T04:48:30;6.08;;;2.12;;
18090;SDS011;9172;49.948;9.208;2022-08-05T04:51:00;3.95;;;2.05;;
18090;SDS011;9172;49.948;9.208;2022-08-05T04:53:28;3.37;;;1.70;;
18090;SDS011;9172;49.948;9.208;2022-08-05T04:55:57;4.10;;;2.30;;
18090;SDS011;9172;49.948;9.208;2022-08-05T04:58:26;6.35;;;2.35;;
18090;SDS011;9172;49.948;9.208;2022-08-05T05:00:56;3.05;;;1.75;;
18090;SDS011;9172;49.948;9.208;2022-08-05T05:03:25;6.60;;;2.17;;
18090;SDS011;9172;49.948;9.208;2022-08-05T05:05:55;3.33;;;1.80;;
18090;SDS011;9172;49.948;9.208;2022-08-05T05:08:23;3.08;;;2.00;;
18090;SDS011;9172;49.948;9.208;2022-08-05T05:10:52;3.12;;;2.17;;
18090;SDS011;9172;49.948;9.208;2022-08-05T05:13:22;4.67;;;2.30;;
18090;SDS011;9172;49.948;9.208;2022-08-05T05:15:51;3.02;;;1.95;;
18090;SDS011;9172;49.948;9.208;2022-08-05T05:18:20;4.05;;;2.35;;
18090;SDS011;9172;49.948;9.208;2022-08-05T05:20:50;4.70;;;2.10;;
18090;SDS011;9172;49.948;9.208;2022-08-05T05:23:19;8.43;;;2.58;;
18090;SDS011;9172;49.948;9.208;2022-08-05T05:25:47;3.40;;;1.87;;
18090;SDS011;9172;49.948;9.208;2022-08-05T05:28:17;3.65;;;1.75;;
18090;SDS011;9172;49.948;9.208;2022-08-05T05:30:48;6.05;;;2.15;;
18090;SDS011;9172;49.948;9.208;2022-08-05T05:33:19;4.08;;;2.40;;
18090;SDS011;9172;49.948;9.208;2022-08-05T05:35:48;4.22;;;1.92;;
18090;SDS011;9172;49.948;9.208;2022-08-05T05:38:17;4.40;;;2.17;;
18090;SDS011;9172;49.948;9.208;2022-08-05T05:40:48;7.10;;;2.67;;
18090;SDS011;9172;49.948;9.208;2022-08-05T05:43:18;4.78;;;2.00;;
18090;SDS011;9172;49.948;9.208;2022-08-05T05:45:48;5.65;;;2.27;;
18090;SDS011;9172;49.948;9.208;2022-08-05T05:48:16;5.10;;;2.33;;
18090;SDS011;9172;49.948;9.208;2022-08-05T05:50:45;4.22;;;2.20;;
18090;SDS011;9172;49.948;9.208;2022-08-05T05:53:16;4.37;;;2.22;;
18090;SDS011;9172;49.948;9.208;2022-08-05T05:55:45;2.25;;;1.85;;
18090;SDS011;9172;49.948;9.208;2022-08-05T05:58:14;4.30;;;2.58;;
18090;SDS011;9172;49.948;9.208;2022-08-05T06:00:43;2.80;;;2.10;;
18090;SDS011;9172;49.948;9.208;2022-08-05T06:03:14;6.00;;;2.02;;
18090;SDS011;9172;49.948;9.208;2022-08-05T06:05:44;6.33;;;2.60;;
18090;SDS011;9172;49.948;9.208;2022-08-05T06:08:14;5.87;;;2.45;;
18090;SDS011;9172;49.948;9.208;2022-08-05T06:10:42;5.20;;;2.65;;
18090;SDS011;9172;49.948;9.208;2022-08-05T06:13:12;5.87;;;2.25;;
18090;SDS011;9172;49.948;9.208;2022-08-05T06:15:41;3.80;;;2.20;;
18090;SDS011;9172;49.948;9.208;2022-08-05T06:18:11;5.15;;;2.37;;
18090;SDS011;9172;49.948;9.208;2022-08-05T06:20:40;6.12;;;3.35;;
18090;SDS011;9172;49.948;9.208;2022-08-05T06:23:10;4.30;;;2.60;;
18090;SDS011;9172;49.948;9.208;2022-08-05T06:25:39;6.75;;;2.83;;
18090;SDS011;9172;49.948;9.208;2022-08-05T06:28:08;6.72;;;2.72;;
18090;SDS011;9172;49.948;9.208;2022-08-05T06:30:36;5.12;;;3.08;;
18090;SDS011;9172;49.948;9.208;2022-08-05T06:33:07;4.70;;;2.60;;
18090;SDS011;9172;49.948;9.208;2022-08-05T06:35:37;5.83;;;2.67;;
18090;SDS011;9172;49.948;9.208;2022-08-05T06:38:07;5.83;;;3.15;;
18090;SDS011;9172;49.948;9.208;2022-08-05T06:40:35;3.90;;;2.67;;
18090;SDS011;9172;49.948;9.208;2022-08-05T06:43:05;5.90;;;3.65;;
18090;SDS011;9172;49.948;9.208;2022-08-05T06:45:35;7.95;;;3.52;;
18090;SDS011;9172;49.948;9.208;2022-08-05T06:48:04;6.72;;;3.00;;
18090;SDS011;9172;49.948;9.208;2022-08-05T06:50:32;6.12;;;2.85;;
18090;SDS011;9172;49.948;9.208;2022-08-05T06:53:01;3.45;;;2.60;;
18090;SDS011;9172;49.948;9.208;2022-08-05T06:55:30;7.00;;;3.15;;
18090;SDS011;9172;49.948;9.208;2022-08-05T06:57:59;10.50;;;3.58;;
18090;SDS011;9172;49.948;9.208;2022-08-05T07:00:28;11.38;;;3.75;;
18090;SDS011;9172;49.948;9.208;2022-08-05T07:02:58;4.78;;;3.17;;
18090;SDS011;9172;49.948;9.208;2022-08-05T07:05:27;4.67;;;3.25;;
18090;SDS011;9172;49.948;9.208;2022-08-05T07:07:57;3.50;;;2.17;;
18090;SDS011;9172;49.948;9.208;2022-08-05T07:10:25;4.17;;;2.45;;
18090;SDS011;9172;49.948;9.208;2022-08-05T07:12:55;3.95;;;2.67;;
18090;SDS011;9172;49.948;9.208;2022-08-05T07:15:41;6.33;;;2.77;;
18090;SDS011;9172;49.948;9.208;2022-08-05T07:18:29;7.87;;;2.80;;
18090;SDS011;9172;49.948;9.208;2022-08-05T07:20:57;3.87;;;2.60;;
18090;SDS011;9172;49.948;9.208;2022-08-05T07:23:26;4.35;;;2.70;;
18090;SDS011;9172;49.948;9.208;2022-08-05T07:25:55;7.97;;;3.00;;
18090;SDS011;9172;49.948;9.208;2022-08-05T07:28:26;5.30;;;2.33;;
18090;SDS011;9172;49.948;9.208;2022-08-05T07:30:55;4.28;;;2.60;;
18090;SDS011;9172;49.948;9.208;2022-08-05T07:36:00;5.45;;;2.60;;
18090;SDS011;9172;49.948;9.208;2022-08-05T07:38:28;4.33;;;2.37;;
18090;SDS011;9172;49.948;9.208;2022-08-05T07:40:57;6.75;;;3.27;;
18090;SDS011;9172;49.948;9.208;2022-08-05T07:43:25;5.17;;;2.37;;
18090;SDS011;9172;49.948;9.208;2022-08-05T07:45:54;5.70;;;2.17;;
18090;SDS011;9172;49.948;9.208;2022-08-05T07:48:23;5.37;;;3.08;;
18090;SDS011;9172;49.948;9.208;2022-08-05T07:50:52;2.83;;;2.20;;
18090;SDS011;9172;49.948;9.208;2022-08-05T07:53:21;5.35;;;2.42;;
18090;SDS011;9172;49.948;9.208;2022-08-05T07:55:50;5.50;;;2.70;;
18090;SDS011;9172;49.948;9.208;2022-08-05T07:58:18;4.67;;;1.98;;
18090;SDS011;9172;49.948;9.208;2022-08-05T08:00:47;3.33;;;1.92;;
18090;SDS011;9172;49.948;9.208;2022-08-05T08:03:16;2.87;;;2.25;;
18090;SDS011;9172;49.948;9.208;2022-08-05T08:05:45;4.22;;;2.00;;
18090;SDS011;9172;49.948;9.208;2022-08-05T08:08:16;7.22;;;2.20;;
18090;SDS011;9172;49.948;9.208;2022-08-05T08:10:46;4.62;;;2.02;;
18090;SDS011;9172;49.948;9.208;2022-08-05T08:13:15;4.87;;;2.55;;
18090;SDS011;9172;49.948;9.208;2022-08-05T08:15:44;6.30;;;2.50;;
18090;SDS011;9172;49.948;9.208;2022-08-05T08:18:13;3.85;;;2.10;;
18090;SDS011;9172;49.948;9.208;2022-08-05T08:20:43;3.60;;;1.90;;
18090;SDS011;9172;49.948;9.208;2022-08-05T08:23:14;4.12;;;2.12;;
18090;SDS011;9172;49.948;9.208;2022-08-05T08:25:44;3.40;;;2.12;;
18090;SDS011;9172;49.948;9.208;2022-08-05T08:28:13;5.97;;;2.20;;
18090;SDS011;9172;49.948;9.208;2022-08-05T08:30:43;3.98;;;1.70;;
18090;SDS011;9172;49.948;9.208;2022-08-05T08:33:13;3.00;;;1.72;;
18090;SDS011;9172;49.948;9.208;2022-08-05T08:35:42;3.27;;;2.58;;
18090;SDS011;9172;49.948;9.208;2022-08-05T08:38:11;2.80;;;1.67;;
18090;SDS011;9172;49.948;9.208;2022-08-05T08:40:41;3.83;;;1.90;;
18090;SDS011;9172;49.948;9.208;2022-08-05T08:43:11;3.42;;;1.80;;
18090;SDS011;9172;49.948;9.208;2022-08-05T08:45:40;3.58;;;1.85;;
18090;SDS011;9172;49.948;9.208;2022-08-05T08:48:09;4.42;;;2.08;;
18090;SDS011;9172;49.948;9.208;2022-08-05T08:50:40;3.27;;;1.62;;
18090;SDS011;9172;49.948;9.208;2022-08-05T08:53:11;3.55;;;1.45;;
18090;SDS011;9172;49.948;9.208;2022-08-05T08:55:42;3.25;;;1.60;;
18090;SDS011;9172;49.948;9.208;2022-08-05T08:58:13;4.47;;;1.82;;
18090;SDS011;9172;49.948;9.208;2022-08-05T09:00:43;3.95;;;2.02;;
18090;SDS011;9172;49.948;9.208;2022-08-05T09:03:12;4.17;;;1.77;;
18090;SDS011;9172;49.948;9.208;2022-08-05T09:05:40;3.95;;;1.42;;
18090;SDS011;9172;49.948;9.208;2022-08-05T09:08:10;5.35;;;1.60;;
18090;SDS011;9172;49.948;9.208;2022-08-05T09:10:39;3.62;;;1.60;;
18090;SDS011;9172;49.948;9.208;2022-08-05T09:13:10;1.70;;;1.32;;
18090;SDS011;9172;49.948;9.208;2022-08-05T09:15:40;2.70;;;1.20;;
18090;SDS011;9172;49.948;9.208;2022-08-05T09:18:09;2.08;;;1.20;;
18090;SDS011;9172;49.948;9.208;2022-08-05T09:20:37;3.35;;;1.30;;
18090;SDS011;9172;49.948;9.208;2022-08-05T09:23:10;3.00;;;1.30;;
18090;SDS011;9172;49.948;9.208;2022-08-05T09:25:41;1.70;;;1.20;;
18090;SDS011;9172;49.948;9.208;2022-08-05T09:28:14;2.85;;;1.42;;
18090;SDS011;9172;49.948;9.208;2022-08-05T09:30:45;3.40;;;1.50;;
18090;SDS011;9172;49.948;9.208;2022-08-05T09:33:21;2.92;;;1.20;;
18090;SDS011;9172;49.948;9.208;2022-08-05T09:35:58;2.08;;;1.40;;
18090;SDS011;9172;49.948;9.208;2022-08-05T09:38:28;1.75;;;1.05;;
18090;SDS011;9172;49.948;9.208;2022-08-05T09:41:04;4.65;;;1.47;;
18090;SDS011;9172;49.948;9.208;2022-08-05T09:43:35;3.33;;;1.30;;
18090;SDS011;9172;49.948;9.208;2022-08-05T09:46:06;2.37;;;1.32;;
18090;SDS011;9172;49.948;9.208;2022-08-05T09:48:37;3.17;;;1.32;;
18090;SDS011;9172;49.948;9.208;2022-08-05T09:51:07;1.95;;;1.20;;
18090;SDS011;9172;49.948;9.208;2022-08-05T09:53:45;2.90;;;1.27;;
18090;SDS011;9172;49.948;9.208;2022-08-05T09:56:23;1.75;;;1.42;;
18090;SDS011;9172;49.948;9.208;2022-08-05T09:58:56;4.75;;;1.50;;
18090;SDS011;9172;49.948;9.208;2022-08-05T10:01:26;6.00;;;1.42;;
18090;SDS011;9172;49.948;9.208;2022-08-05T10:03:58;2.90;;;1.45;;
18090;SDS011;9172;49.948;9.208;2022-08-05T10:06:29;2.52;;;1.22;;
18090;SDS011;9172;49.948;9.208;2022-08-05T10:09:08;1.72;;;1.20;;
18090;SDS011;9172;49.948;9.208;2022-08-05T10:11:39;3.25;;;1.25;;
18090;SDS011;9172;49.948;9.208;2022-08-05T10:14:21;3.95;;;1.15;;
18090;SDS011;9172;49.948;9.208;2022-08-05T10:16:51;1.90;;;1.37;;
18090;SDS011;9172;49.948;9.208;2022-08-05T10:19:21;1.20;;;1.07;;
18090;SDS011;9172;49.948;9.208;2022-08-05T10:21:51;2.05;;;1.17;;
18090;SDS011;9172;49.948;9.208;2022-08-05T10:24:19;6.00;;;1.70;;
18090;SDS011;9172;49.948;9.208;2022-08-05T10:26:48;2.15;;;1.25;;
18090;SDS011;9172;49.948;9.208;2022-08-05T10:29:20;3.55;;;1.37;;
18090;SDS011;9172;49.948;9.208;2022-08-05T10:31:49;1.75;;;1.20;;
18090;SDS011;9172;49.948;9.208;2022-08-05T10:34:18;4.10;;;1.47;;
18090;SDS011;9172;49.948;9.208;2022-08-05T10:36:48;1.87;;;1.32;;
18090;SDS011;9172;49.948;9.208;2022-08-05T10:39:18;3.50;;;1.22;;
18090;SDS011;9172;49.948;9.208;2022-08-05T10:41:52;3.22;;;1.98;;
18090;SDS011;9172;49.948;9.208;2022-08-05T10:44:22;3.22;;;1.42;;
18090;SDS011;9172;49.948;9.208;2022-08-05T10:46:53;2.52;;;1.72;;
18090;SDS011;9172;49.948;9.208;2022-08-05T10:49:23;2.52;;;1.47;;
18090;SDS011;9172;49.948;9.208;2022-08-05T10:51:53;2.95;;;1.60;;
18090;SDS011;9172;49.948;9.208;2022-08-05T10:54:23;3.15;;;1.40;;
18090;SDS011;9172;49.948;9.208;2022-08-05T10:56:55;4.53;;;1.67;;
18090;SDS011;9172;49.948;9.208;2022-08-05T10:59:25;3.95;;;1.40;;
18090;SDS011;9172;49.948;9.208;2022-08-05T11:02:08;2.00;;;1.62;;
18090;SDS011;9172;49.948;9.208;2022-08-05T11:04:42;2.75;;;1.45;;
18090;SDS011;9172;49.948;9.208;2022-08-05T11:07:12;2.02;;;1.52;;
18090;SDS011;9172;49.948;9.208;2022-08-05T11:09:44;2.70;;;1.90;;
18090;SDS011;9172;49.948;9.208;2022-08-05T11:15:19;3.02;;;1.80;;
18090;SDS011;9172;49.948;9.208;2022-08-05T11:17:50;2.35;;;1.40;;
18090;SDS011;9172;49.948;9.208;2022-08-05T11:20:33;3.37;;;1.67;;
18090;SDS011;9172;49.948;9.208;2022-08-05T11:26:22;4.30;;;1.62;;
18090;SDS011;9172;49.948;9.208;2022-08-05T11:28:51;3.60;;;1.50;;
18090;SDS011;9172;49.948;9.208;2022-08-05T11:31:24;2.30;;;1.70;;
18090;SDS011;9172;49.948;9.208;2022-08-05T11:33:57;3.47;;;1.60;;
18090;SDS011;9172;49.948;9.208;2022-08-05T11:36:43;3.58;;;2.05;;
18090;SDS011;9172;49.948;9.208;2022-08-05T11:42:16;2.87;;;2.00;;
18090;SDS011;9172;49.948;9.208;2022-08-05T11:44:50;3.67;;;2.17;;
18090;SDS011;9172;49.948;9.208;2022-08-05T11:47:21;2.02;;;1.40;;
18090;SDS011;9172;49.948;9.208;2022-08-05T11:49:54;2.62;;;1.70;;
18090;SDS011;9172;49.948;9.208;2022-08-05T11:52:26;2.47;;;1.55;;
18090;SDS011;9172;49.948;9.208;2022-08-05T11:54:56;2.70;;;1.50;;
18090;SDS011;9172;49.948;9.208;2022-08-05T11:57:28;2.10;;;1.60;;
18090;SDS011;9172;49.948;9.208;2022-08-05T11:59:57;2.08;;;1.50;;
18090;SDS011;9172;49.948;9.208;2022-08-05T12:02:27;2.90;;;1.85;;
18090;SDS011;9172;49.948;9.208;2022-08-05T12:04:57;2.50;;;1.70;;
18090;SDS011;9172;49.948;9.208;2022-08-05T12:07:32;4.45;;;1.77;;
18090;SDS011;9172;49.948;9.208;2022-08-05T12:10:00;2.85;;;1.70;;
18090;SDS011;9172;49.948;9.208;2022-08-05T12:12:30;6.50;;;1.87;;
18090;SDS011;9172;49.948;9.208;2022-08-05T12:14:59;3.58;;;1.60;;
18090;SDS011;9172;49.948;9.208;2022-08-05T12:17:29;3.08;;;1.60;;
18090;SDS011;9172;49.948;9.208;2022-08-05T12:20:03;5.03;;;2.05;;
18090;SDS011;9172;49.948;9.208;2022-08-05T12:22:33;1.82;;;1.45;;
18090;SDS011;9172;49.948;9.208;2022-08-05T12:25:02;3.50;;;1.92;;
18090;SDS011;9172;49.948;9.208;2022-08-05T12:27:31;2.40;;;1.60;;
18090;SDS011;9172;49.948;9.208;2022-08-05T12:32:43;2.27;;;1.70;;
18090;SDS011;9172;49.948;9.208;2022-08-05T12:35:15;2.42;;;1.70;;
18090;SDS011;9172;49.948;9.208;2022-08-05T12:37:45;2.55;;;1.60;;
18090;SDS011;9172;49.948;9.208;2022-08-05T12:40:15;3.10;;;1.85;;
18090;SDS011;9172;49.948;9.208;2022-08-05T12:42:47;2.35;;;1.85;;
18090;SDS011;9172;49.948;9.208;2022-08-05T12:45:16;3.45;;;1.70;;
18090;SDS011;9172;49.948;9.208;2022-08-05T12:47:46;2.80;;;2.00;;
18090;SDS011;9172;49.948;9.208;2022-08-05T12:50:17;3.30;;;2.08;;
18090;SDS011;9172;49.948;9.208;2022-08-05T12:52:54;3.10;;;1.95;;
18090;SDS011;9172;49.948;9.208;2022-08-05T12:55:25;2.35;;;1.82;;
18090;SDS011;9172;49.948;9.208;2022-08-05T12:57:56;3.15;;;1.80;;
18090;SDS011;9172;49.948;9.208;2022-08-05T13:00:26;2.45;;;1.52;;
18090;SDS011;9172;49.948;9.208;2022-08-05T13:02:56;2.40;;;2.05;;
18090;SDS011;9172;49.948;9.208;2022-08-05T13:05:26;4.22;;;1.75;;
18090;SDS011;9172;49.948;9.208;2022-08-05T13:07:56;3.37;;;1.57;;
18090;SDS011;9172;49.948;9.208;2022-08-05T13:10:26;2.98;;;2.33;;
18090;SDS011;9172;49.948;9.208;2022-08-05T13:12:56;3.12;;;2.00;;
18090;SDS011;9172;49.948;9.208;2022-08-05T13:15:29;3.55;;;1.77;;
18090;SDS011;9172;49.948;9.208;2022-08-05T13:17:59;2.50;;;1.67;;
18090;SDS011;9172;49.948;9.208;2022-08-05T13:20:32;3.52;;;2.17;;
18090;SDS011;9172;49.948;9.208;2022-08-05T13:23:02;2.72;;;2.17;;
18090;SDS011;9172;49.948;9.208;2022-08-05T13:25:31;2.70;;;1.87;;
18090;SDS011;9172;49.948;9.208;2022-08-05T13:28:02;2.47;;;1.65;;
18090;SDS011;9172;49.948;9.208;2022-08-05T13:30:31;2.55;;;2.05;;
18090;SDS011;9172;49.948;9.208;2022-08-05T13:33:02;3.15;;;1.95;;
18090;SDS011;9172;49.948;9.208;2022-08-05T13:35:31;2.62;;;1.80;;
18090;SDS011;9172;49.948;9.208;2022-08-05T13:38:00;4.03;;;2.00;;
18090;SDS011;9172;49.948;9.208;2022-08-05T13:40:29;4.03;;;2.00;;
18090;SDS011;9172;49.948;9.208;2022-08-05T13:42:59;3.40;;;2.10;;
18090;SDS011;9172;49.948;9.208;2022-08-05T13:45:29;5.17;;;2.22;;
18090;SDS011;9172;49.948;9.208;2022-08-05T13:47:59;4.37;;;2.08;;
18090;SDS011;9172;49.948;9.208;2022-08-05T13:50:28;2.15;;;1.85;;
18090;SDS011;9172;49.948;9.208;2022-08-05T13:52:59;3.25;;;2.17;;
18090;SDS011;9172;49.948;9.208;2022-08-05T13:55:28;2.72;;;1.95;;
18090;SDS011;9172;49.948;9.208;2022-08-05T13:57:57;3.35;;;2.30;;
18090;SDS011;9172;49.948;9.208;2022-08-05T14:00:26;2.67;;;1.90;;
18090;SDS011;9172;49.948;9.208;2022-08-05T14:02:55;2.47;;;1.85;;
18090;SDS011;9172;49.948;9.208;2022-08-05T14:05:24;3.05;;;1.85;;
18090;SDS011;9172;49.948;9.208;2022-08-05T14:07:53;3.50;;;2.02;;
18090;SDS011;9172;49.948;9.208;2022-08-05T14:10:23;4.28;;;2.67;;
18090;SDS011;9172;49.948;9.208;2022-08-05T14:12:52;5.75;;;2.20;;
18090;SDS011;9172;49.948;9.208;2022-08-05T14:15:22;2.50;;;2.00;;
18090;SDS011;9172;49.948;9.208;2022-08-05T14:17:51;2.80;;;2.45;;
18090;SDS011;9172;49.948;9.208;2022-08-05T14:20:20;4.20;;;2.30;;
18090;SDS011;9172;49.948;9.208;2022-08-05T14:22:49;4.78;;;2.90;;
18090;SDS011;9172;49.948;9.208;2022-08-05T14:25:18;2.87;;;2.37;;
18090;SDS011;9172;49.948;9.208;2022-08-05T14:27:47;5.05;;;2.35;;
18090;SDS011;9172;49.948;9.208;2022-08-05T14:30:17;5.15;;;2.50;;
18090;SDS011;9172;49.948;9.208;2022-08-05T14:32:46;5.42;;;2.95;;
18090;SDS011;9172;49.948;9.208;2022-08-05T14:35:14;4.97;;;3.17;;
18090;SDS011;9172;49.948;9.208;2022-08-05T14:37:43;6.87;;;3.02;;
18090;SDS011;9172;49.948;9.208;2022-08-05T14:40:12;5.37;;;2.85;;
18090;SDS011;9172;49.948;9.208;2022-08-05T14:42:41;4.50;;;2.62;;
18090;SDS011;9172;49.948;9.208;2022-08-05T14:45:09;3.77;;;2.33;;
18090;SDS011;9172;49.948;9.208;2022-08-05T14:47:38;4.35;;;2.90;;
18090;SDS011;9172;49.948;9.208;2022-08-05T14:50:07;5.45;;;2.85;;
18090;SDS011;9172;49.948;9.208;2022-08-05T14:52:36;7.20;;;3.10;;
18090;SDS011;9172;49.948;9.208;2022-08-05T14:55:06;4.50;;;3.25;;
18090;SDS011;9172;49.948;9.208;2022-08-05T14:57:36;4.05;;;3.30;;
18090;SDS011;9172;49.948;9.208;2022-08-05T15:00:07;9.38;;;4.20;;
18090;SDS011;9172;49.948;9.208;2022-08-05T15:05:15;5.78;;;3.77;;
18090;SDS011;9172;49.948;9.208;2022-08-05T15:07:44;9.80;;;3.87;;
18090;SDS011;9172;49.948;9.208;2022-08-05T15:10:13;5.33;;;3.75;;
18090;SDS011;9172;49.948;9.208;2022-08-05T15:12:41;5.37;;;3.47;;
18090;SDS011;9172;49.948;9.208;2022-08-05T15:15:12;4.30;;;3.55;;
18090;SDS011;9172;49.948;9.208;2022-08-05T15:17:40;4.33;;;3.33;;
18090;SDS011;9172;49.948;9.208;2022-08-05T15:20:09;7.70;;;3.37;;
18090;SDS011;9172;49.948;9.208;2022-08-05T15:22:38;6.95;;;3.20;;
18090;SDS011;9172;49.948;9.208;2022-08-05T15:25:08;3.80;;;2.90;;
18090;SDS011;9172;49.948;9.208;2022-08-05T15:27:37;6.12;;;3.60;;
18090;SDS011;9172;49.948;9.208;2022-08-05T15:30:08;5.10;;;3.35;;
18090;SDS011;9172;49.948;9.208;2022-08-05T15:32:38;5.95;;;3.25;;
18090;SDS011;9172;49.948;9.208;2022-08-05T15:35:07;4.03;;;3.08;;
18090;SDS011;9172;49.948;9.208;2022-08-05T15:37:36;3.55;;;2.72;;
18090;SDS011;9172;49.948;9.208;2022-08-05T15:40:06;8.70;;;3.90;;